sensor_id;sensor_type;location;lat;lon;timestamp;P1;P2;P0
44045;PMS7003;29709;52.396;16.796;2022-12-19T00:02:05;24;20;10
44045;PMS7003;29709;52.396;16.796;2022-12-19T00:05:08;34;29;18
44045;PMS7003;29709;52.396;16.796;2022-12-19T00:08:13;40;32;22
44045;PMS7003;29709;52.396;16.796;2022-12-19T00:11:21;39;33;20
44045;PMS7003;29709;52.396;16.796;2022-12-19T00:14:25;32;30;21
44045;PMS7003;29709;52.396;16.796;2022-12-19T00:17:28;46;35;23
44045;PMS7003;29709;52.396;16.796;2022-12-19T00:20:31;39;32;20
44045;PMS7003;29709;52.396;16.796;2022-12-19T00:24:02;41;33;21
44045;PMS7003;29709;52.396;16.796;2022-12-19T00:27:06;37;27;19
44045;PMS7003;29709;52.396;16.796;2022-12-19T00:30:10;34;27;17
44045;PMS7003;29709;52.396;16.796;2022-12-19T00:33:13;39;33;22
44045;PMS7003;29709;52.396;16.796;2022-12-19T00:36:20;31;25;15
44045;PMS7003;29709;52.396;16.796;2022-12-19T00:39:25;37;30;22
44045;PMS7003;29709;52.396;16.796;2022-12-19T00:42:28;44;33;22
44045;PMS7003;29709;52.396;16.796;2022-12-19T00:45:31;35;32;21
44045;PMS7003;29709;52.396;16.796;2022-12-19T00:48:34;32;23;15
44045;PMS7003;29709;52.396;16.796;2022-12-19T00:52:05;36;32;18
44045;PMS7003;29709;52.396;16.796;2022-12-19T00:55:09;33;27;13
44045;PMS7003;29709;52.396;16.796;2022-12-19T00:58:12;41;33;22
44045;PMS7003;29709;52.396;16.796;2022-12-19T01:01:16;41;32;21
44045;PMS7003;29709;52.396;16.796;2022-12-19T01:04:24;36;31;21
44045;PMS7003;29709;52.396;16.796;2022-12-19T01:07:28;38;32;21
44045;PMS7003;29709;52.396;16.796;2022-12-19T01:10:31;39;31;21
44045;PMS7003;29709;52.396;16.796;2022-12-19T01:13:34;42;32;23
44045;PMS7003;29709;52.396;16.796;2022-12-19T01:16:38;38;30;19
44045;PMS7003;29709;52.396;16.796;2022-12-19T01:20:08;34;28;20
44045;PMS7003;29709;52.396;16.796;2022-12-19T01:23:14;39;32;20
44045;PMS7003;29709;52.396;16.796;2022-12-19T01:26:18;25;24;16
44045;PMS7003;29709;52.396;16.796;2022-12-19T01:29:21;42;32;22
44045;PMS7003;29709;52.396;16.796;2022-12-19T01:32:23;26;20;15
44045;PMS7003;29709;52.396;16.796;2022-12-19T01:35:26;37;31;19
44045;PMS7003;29709;52.396;16.796;2022-12-19T01:38:29;31;29;21
44045;PMS7003;29709;52.396;16.796;2022-12-19T01:41:33;22;16;11
44045;PMS7003;29709;52.396;16.796;2022-12-19T01:44:38;35;30;17
44045;PMS7003;29709;52.396;16.796;2022-12-19T01:51:24;36;32;22
44045;PMS7003;29709;52.396;16.796;2022-12-19T01:54:32;18;13;6
44045;PMS7003;29709;52.396;16.796;2022-12-19T01:57:38;30;26;18
44045;PMS7003;29709;52.396;16.796;2022-12-19T02:00:42;43;33;23
44045;PMS7003;29709;52.396;16.796;2022-12-19T02:03:46;35;30;20
44045;PMS7003;29709;52.396;16.796;2022-12-19T02:06:50;41;33;21
44045;PMS7003;29709;52.396;16.796;2022-12-19T02:10:22;19;17;5
44045;PMS7003;29709;52.396;16.796;2022-12-19T02:13:25;38;32;21
44045;PMS7003;29709;52.396;16.796;2022-12-19T02:23:08;35;27;16
44045;PMS7003;29709;52.396;16.796;2022-12-19T02:36:25;32;26;14
44045;PMS7003;29709;52.396;16.796;2022-12-19T02:43:13;34;30;19
44045;PMS7003;29709;52.396;16.796;2022-12-19T02:46:19;41;34;24
44045;PMS7003;29709;52.396;16.796;2022-12-19T02:49:27;33;31;21
44045;PMS7003;29709;52.396;16.796;2022-12-19T03:09:15;27;20;14
44045;PMS7003;29709;52.396;16.796;2022-12-19T03:12:29;40;34;23
44045;PMS7003;29709;52.396;16.796;2022-12-19T03:15:36;40;33;21
44045;PMS7003;29709;52.396;16.796;2022-12-19T03:19:09;28;26;15
44045;PMS7003;29709;52.396;16.796;2022-12-19T03:22:15;39;33;21
44045;PMS7003;29709;52.396;16.796;2022-12-19T03:25:18;36;26;16
44045;PMS7003;29709;52.396;16.796;2022-12-19T03:28:29;43;31;19
44045;PMS7003;29709;52.396;16.796;2022-12-19T03:31:40;33;32;21
44045;PMS7003;29709;52.396;16.796;2022-12-19T03:34:48;32;25;18
44045;PMS7003;29709;52.396;16.796;2022-12-19T03:37:56;39;32;22
44045;PMS7003;29709;52.396;16.796;2022-12-19T03:41:03;39;33;23
44045;PMS7003;29709;52.396;16.796;2022-12-19T03:44:12;42;36;23
44045;PMS7003;29709;52.396;16.796;2022-12-19T03:47:23;38;33;22
44045;PMS7003;29709;52.396;16.796;2022-12-19T03:50:54;39;33;21
44045;PMS7003;29709;52.396;16.796;2022-12-19T03:57:13;34;28;19
44045;PMS7003;29709;52.396;16.796;2022-12-19T04:00:21;22;17;5
44045;PMS7003;29709;52.396;16.796;2022-12-19T04:03:26;33;30;20
44045;PMS7003;29709;52.396;16.796;2022-12-19T04:06:57;31;26;18
44045;PMS7003;29709;52.396;16.796;2022-12-19T04:10:06;30;29;18
44045;PMS7003;29709;52.396;16.796;2022-12-19T04:13:15;39;32;19
44045;PMS7003;29709;52.396;16.796;2022-12-19T04:16:26;35;25;16
44045;PMS7003;29709;52.396;16.796;2022-12-19T04:19:39;37;30;21
44045;PMS7003;29709;52.396;16.796;2022-12-19T04:22:53;35;32;21
44045;PMS7003;29709;52.396;16.796;2022-12-19T04:26:02;39;33;22
44045;PMS7003;29709;52.396;16.796;2022-12-19T04:29:07;38;32;21
44045;PMS7003;29709;52.396;16.796;2022-12-19T04:32:13;20;20;10
44045;PMS7003;29709;52.396;16.796;2022-12-19T04:35:42;40;34;21
44045;PMS7003;29709;52.396;16.796;2022-12-19T04:38:45;27;24;15
44045;PMS7003;29709;52.396;16.796;2022-12-19T04:41:48;41;31;19
44045;PMS7003;29709;52.396;16.796;2022-12-19T04:44:51;37;27;15
44045;PMS7003;29709;52.396;16.796;2022-12-19T04:47:54;38;30;20
44045;PMS7003;29709;52.396;16.796;2022-12-19T04:50:57;29;26;16
44045;PMS7003;29709;52.396;16.796;2022-12-19T04:53:59;36;32;23
44045;PMS7003;29709;52.396;16.796;2022-12-19T04:57:02;26;24;18
44045;PMS7003;29709;52.396;16.796;2022-12-19T05:00:06;24;23;18
44045;PMS7003;29709;52.396;16.796;2022-12-19T05:03:10;33;30;21
44045;PMS7003;29709;52.396;16.796;2022-12-19T05:06:12;28;22;14
44045;PMS7003;29709;52.396;16.796;2022-12-19T05:09:42;42;35;22
44045;PMS7003;29709;52.396;16.796;2022-12-19T05:12:44;32;26;18
44045;PMS7003;29709;52.396;16.796;2022-12-19T05:15:54;30;27;16
44045;PMS7003;29709;52.396;16.796;2022-12-19T05:19:01;34;32;21
44045;PMS7003;29709;52.396;16.796;2022-12-19T05:22:04;34;26;14
44045;PMS7003;29709;52.396;16.796;2022-12-19T05:25:07;28;25;15
44045;PMS7003;29709;52.396;16.796;2022-12-19T05:28:10;17;15;6
44045;PMS7003;29709;52.396;16.796;2022-12-19T05:31:14;32;27;18
44045;PMS7003;29709;52.396;16.796;2022-12-19T05:34:49;37;31;23
44045;PMS7003;29709;52.396;16.796;2022-12-19T05:37:52;31;29;17
44045;PMS7003;29709;52.396;16.796;2022-12-19T05:40:55;37;31;20
44045;PMS7003;29709;52.396;16.796;2022-12-19T05:43:58;39;32;21
44045;PMS7003;29709;52.396;16.796;2022-12-19T05:47:00;33;28;21
44045;PMS7003;29709;52.396;16.796;2022-12-19T05:50:04;27;21;13
44045;PMS7003;29709;52.396;16.796;2022-12-19T05:53:07;30;25;18
44045;PMS7003;29709;52.396;16.796;2022-12-19T05:56:11;31;27;19
44045;PMS7003;29709;52.396;16.796;2022-12-19T05:59:16;28;23;14
44045;PMS7003;29709;52.396;16.796;2022-12-19T06:02:19;31;26;18
44045;PMS7003;29709;52.396;16.796;2022-12-19T06:05:49;34;29;18
44045;PMS7003;29709;52.396;16.796;2022-12-19T06:08:52;33;30;19
44045;PMS7003;29709;52.396;16.796;2022-12-19T06:11:56;35;28;18
44045;PMS7003;29709;52.396;16.796;2022-12-19T06:14:59;37;29;20
44045;PMS7003;29709;52.396;16.796;2022-12-19T06:18:02;33;29;19
44045;PMS7003;29709;52.396;16.796;2022-12-19T06:21:05;26;16;13
44045;PMS7003;29709;52.396;16.796;2022-12-19T06:24:11;21;18;11
44045;PMS7003;29709;52.396;16.796;2022-12-19T06:27:14;24;22;11
44045;PMS7003;29709;52.396;16.796;2022-12-19T06:30:17;23;21;14
44045;PMS7003;29709;52.396;16.796;2022-12-19T06:33:20;25;21;13
44045;PMS7003;29709;52.396;16.796;2022-12-19T06:36:50;29;24;17
44045;PMS7003;29709;52.396;16.796;2022-12-19T06:39:53;22;13;7
44045;PMS7003;29709;52.396;16.796;2022-12-19T06:42:55;35;24;17
44045;PMS7003;29709;52.396;16.796;2022-12-19T06:45:58;24;21;16
44045;PMS7003;29709;52.396;16.796;2022-12-19T06:49:02;21;15;11
44045;PMS7003;29709;52.396;16.796;2022-12-19T06:52:05;22;22;17
44045;PMS7003;29709;52.396;16.796;2022-12-19T06:55:08;33;26;18
44045;PMS7003;29709;52.396;16.796;2022-12-19T06:58:11;37;32;22
44045;PMS7003;29709;52.396;16.796;2022-12-19T07:01:15;55;44;32
44045;PMS7003;29709;52.396;16.796;2022-12-19T07:04:31;58;43;30
44045;PMS7003;29709;52.396;16.796;2022-12-19T07:08:03;40;28;22
44045;PMS7003;29709;52.396;16.796;2022-12-19T07:11:07;28;25;18
44045;PMS7003;29709;52.396;16.796;2022-12-19T07:14:10;31;28;21
44045;PMS7003;29709;52.396;16.796;2022-12-19T07:17:12;30;28;19
44045;PMS7003;29709;52.396;16.796;2022-12-19T07:20:16;22;18;10
44045;PMS7003;29709;52.396;16.796;2022-12-19T07:23:20;29;26;18
44045;PMS7003;29709;52.396;16.796;2022-12-19T07:26:24;20;16;5
44045;PMS7003;29709;52.396;16.796;2022-12-19T07:29:27;33;25;18
44045;PMS7003;29709;52.396;16.796;2022-12-19T07:32:30;26;22;12
44045;PMS7003;29709;52.396;16.796;2022-12-19T07:35:33;25;23;13
44045;PMS7003;29709;52.396;16.796;2022-12-19T07:39:04;29;25;18
44045;PMS7003;29709;52.396;16.796;2022-12-19T07:42:06;14;10;9
44045;PMS7003;29709;52.396;16.796;2022-12-19T07:45:09;31;21;14
44045;PMS7003;29709;52.396;16.796;2022-12-19T07:48:13;29;27;18
44045;PMS7003;29709;52.396;16.796;2022-12-19T07:51:16;16;14;6
44045;PMS7003;29709;52.396;16.796;2022-12-19T07:54:20;28;27;20
44045;PMS7003;29709;52.396;16.796;2022-12-19T07:57:23;22;20;14
44045;PMS7003;29709;52.396;16.796;2022-12-19T08:00:26;34;29;17
44045;PMS7003;29709;52.396;16.796;2022-12-19T08:03:29;21;16;12
44045;PMS7003;29709;52.396;16.796;2022-12-19T08:06:35;23;19;18
44045;PMS7003;29709;52.396;16.796;2022-12-19T08:10:05;21;17;9
44045;PMS7003;29709;52.396;16.796;2022-12-19T08:13:08;36;31;21
44045;PMS7003;29709;52.396;16.796;2022-12-19T08:16:11;16;14;10
44045;PMS7003;29709;52.396;16.796;2022-12-19T08:19:14;34;27;17
44045;PMS7003;29709;52.396;16.796;2022-12-19T08:22:17;28;25;17
44045;PMS7003;29709;52.396;16.796;2022-12-19T08:25:19;30;24;15
44045;PMS7003;29709;52.396;16.796;2022-12-19T08:28:22;27;22;15
44045;PMS7003;29709;52.396;16.796;2022-12-19T08:31:26;33;25;18
44045;PMS7003;29709;52.396;16.796;2022-12-19T08:34:29;31;26;19
44045;PMS7003;29709;52.396;16.796;2022-12-19T08:37:32;27;25;17
44045;PMS7003;29709;52.396;16.796;2022-12-19T08:40:35;28;26;19
44045;PMS7003;29709;52.396;16.796;2022-12-19T08:44:05;16;14;9
44045;PMS7003;29709;52.396;16.796;2022-12-19T08:47:08;31;25;17
44045;PMS7003;29709;52.396;16.796;2022-12-19T08:50:12;30;21;14
44045;PMS7003;29709;52.396;16.796;2022-12-19T08:53:17;26;23;16
44045;PMS7003;29709;52.396;16.796;2022-12-19T08:56:22;20;18;7
44045;PMS7003;29709;52.396;16.796;2022-12-19T08:59:27;29;22;15
44045;PMS7003;29709;52.396;16.796;2022-12-19T09:02:32;39;27;16
44045;PMS7003;29709;52.396;16.796;2022-12-19T09:05:37;27;25;15
44045;PMS7003;29709;52.396;16.796;2022-12-19T09:09:11;37;29;20
44045;PMS7003;29709;52.396;16.796;2022-12-19T09:12:14;37;33;21
44045;PMS7003;29709;52.396;16.796;2022-12-19T09:15:18;22;22;14
44045;PMS7003;29709;52.396;16.796;2022-12-19T09:18:23;13;11;7
44045;PMS7003;29709;52.396;16.796;2022-12-19T09:21:28;21;16;11
44045;PMS7003;29709;52.396;16.796;2022-12-19T09:24:33;27;20;12
44045;PMS7003;29709;52.396;16.796;2022-12-19T09:27:38;30;25;18
44045;PMS7003;29709;52.396;16.796;2022-12-19T09:30:43;28;23;16
44045;PMS7003;29709;52.396;16.796;2022-12-19T09:34:17;27;25;19
44045;PMS7003;29709;52.396;16.796;2022-12-19T09:37:20;26;21;12
44045;PMS7003;29709;52.396;16.796;2022-12-19T09:40:24;29;20;15
44045;PMS7003;29709;52.396;16.796;2022-12-19T09:46:50;34;27;18
44045;PMS7003;29709;52.396;16.796;2022-12-19T09:49:57;27;23;16
44045;PMS7003;29709;52.396;16.796;2022-12-19T09:53:32;23;22;13
44045;PMS7003;29709;52.396;16.796;2022-12-19T09:56:42;24;20;12
44045;PMS7003;29709;52.396;16.796;2022-12-19T10:00:06;20;18;12
44045;PMS7003;29709;52.396;16.796;2022-12-19T10:03:13;30;24;17
44045;PMS7003;29709;52.396;16.796;2022-12-19T10:06:46;11;10;5
44045;PMS7003;29709;52.396;16.796;2022-12-19T10:09:49;24;21;14
44045;PMS7003;29709;52.396;16.796;2022-12-19T10:16:09;14;13;12
44045;PMS7003;29709;52.396;16.796;2022-12-19T10:26:18;29;26;18
44045;PMS7003;29709;52.396;16.796;2022-12-19T10:32:42;25;24;17
44045;PMS7003;29709;52.396;16.796;2022-12-19T10:36:21;25;20;13
44045;PMS7003;29709;52.396;16.796;2022-12-19T10:39:28;31;27;16
44045;PMS7003;29709;52.396;16.796;2022-12-19T10:42:55;18;18;14
44045;PMS7003;29709;52.396;16.796;2022-12-19T10:45:56;30;24;18
44045;PMS7003;29709;52.396;16.796;2022-12-19T10:52:44;23;19;11
44045;PMS7003;29709;52.396;16.796;2022-12-19T10:58:44;24;22;16
44045;PMS7003;29709;52.396;16.796;2022-12-19T11:02:21;27;23;15
44045;PMS7003;29709;52.396;16.796;2022-12-19T11:05:28;22;19;14
44045;PMS7003;29709;52.396;16.796;2022-12-19T11:08:34;22;19;12
44045;PMS7003;29709;52.396;16.796;2022-12-19T11:11:37;33;30;21
44045;PMS7003;29709;52.396;16.796;2022-12-19T11:18:02;23;22;13
44045;PMS7003;29709;52.396;16.796;2022-12-19T11:24:33;24;22;14
44045;PMS7003;29709;52.396;16.796;2022-12-19T11:27:40;29;24;16
44045;PMS7003;29709;52.396;16.796;2022-12-19T11:30:53;30;25;17
44045;PMS7003;29709;52.396;16.796;2022-12-19T11:34:03;31;28;17
44045;PMS7003;29709;52.396;16.796;2022-12-19T11:40:30;22;19;13
44045;PMS7003;29709;52.396;16.796;2022-12-19T11:53:26;23;20;16
44045;PMS7003;29709;52.396;16.796;2022-12-19T11:56:36;30;24;15
44045;PMS7003;29709;52.396;16.796;2022-12-19T12:00:05;23;21;13
44045;PMS7003;29709;52.396;16.796;2022-12-19T12:03:26;27;24;17
44045;PMS7003;29709;52.396;16.796;2022-12-19T12:13:11;23;17;11
44045;PMS7003;29709;52.396;16.796;2022-12-19T12:16:19;22;18;11
44045;PMS7003;29709;52.396;16.796;2022-12-19T12:29:26;23;20;16
44045;PMS7003;29709;52.396;16.796;2022-12-19T12:35:53;24;21;15
44045;PMS7003;29709;52.396;16.796;2022-12-19T12:45:39;24;22;14
44045;PMS7003;29709;52.396;16.796;2022-12-19T12:48:48;21;15;10
44045;PMS7003;29709;52.396;16.796;2022-12-19T12:51:55;25;21;17
44045;PMS7003;29709;52.396;16.796;2022-12-19T12:55:02;16;12;8
44045;PMS7003;29709;52.396;16.796;2022-12-19T13:07:50;22;17;11
44045;PMS7003;29709;52.396;16.796;2022-12-19T13:11:05;19;16;12
44045;PMS7003;29709;52.396;16.796;2022-12-19T13:20:45;26;23;16
44045;PMS7003;29709;52.396;16.796;2022-12-19T13:23:49;21;16;10
44045;PMS7003;29709;52.396;16.796;2022-12-19T13:30:32;22;16;12
44045;PMS7003;29709;52.396;16.796;2022-12-19T13:36:52;23;20;15
44045;PMS7003;29709;52.396;16.796;2022-12-19T13:40:00;23;21;16
44045;PMS7003;29709;52.396;16.796;2022-12-19T13:49:44;21;18;13
44045;PMS7003;29709;52.396;16.796;2022-12-19T13:53:22;22;19;14
44045;PMS7003;29709;52.396;16.796;2022-12-19T13:56:28;25;21;15
44045;PMS7003;29709;52.396;16.796;2022-12-19T13:59:32;30;22;14
44045;PMS7003;29709;52.396;16.796;2022-12-19T14:02:45;23;19;11
44045;PMS7003;29709;52.396;16.796;2022-12-19T14:05:57;25;23;14
44045;PMS7003;29709;52.396;16.796;2022-12-19T14:09:05;20;16;13
44045;PMS7003;29709;52.396;16.796;2022-12-19T14:12:14;17;15;10
44045;PMS7003;29709;52.396;16.796;2022-12-19T14:15:37;30;25;17
44045;PMS7003;29709;52.396;16.796;2022-12-19T14:18:47;31;23;13
44045;PMS7003;29709;52.396;16.796;2022-12-19T14:21:51;23;19;14
44045;PMS7003;29709;52.396;16.796;2022-12-19T14:25:20;22;19;14
44045;PMS7003;29709;52.396;16.796;2022-12-19T14:31:39;32;25;17
44045;PMS7003;29709;52.396;16.796;2022-12-19T14:34:43;24;21;17
44045;PMS7003;29709;52.396;16.796;2022-12-19T14:37:57;25;21;14
44045;PMS7003;29709;52.396;16.796;2022-12-19T14:41:03;30;25;18
44045;PMS7003;29709;52.396;16.796;2022-12-19T14:44:07;27;21;12
44045;PMS7003;29709;52.396;16.796;2022-12-19T14:47:36;27;22;15
44045;PMS7003;29709;52.396;16.796;2022-12-19T14:50:41;26;22;15
44045;PMS7003;29709;52.396;16.796;2022-12-19T14:57:02;25;24;16
44045;PMS7003;29709;52.396;16.796;2022-12-19T15:00:56;26;21;15
44045;PMS7003;29709;52.396;16.796;2022-12-19T15:04:04;33;25;13
44045;PMS7003;29709;52.396;16.796;2022-12-19T15:10:24;26;24;17
44045;PMS7003;29709;52.396;16.796;2022-12-19T15:13:29;23;20;15
44045;PMS7003;29709;52.396;16.796;2022-12-19T15:16:32;24;21;14
44045;PMS7003;29709;52.396;16.796;2022-12-19T15:20:04;19;17;13
44045;PMS7003;29709;52.396;16.796;2022-12-19T15:23:10;18;18;12
44045;PMS7003;29709;52.396;16.796;2022-12-19T15:26:14;26;22;14
44045;PMS7003;29709;52.396;16.796;2022-12-19T15:29:20;29;26;16
44045;PMS7003;29709;52.396;16.796;2022-12-19T15:32:23;18;18;15
44045;PMS7003;29709;52.396;16.796;2022-12-19T15:35:26;19;14;8
44045;PMS7003;29709;52.396;16.796;2022-12-19T15:38:29;20;18;14
44045;PMS7003;29709;52.396;16.796;2022-12-19T15:41:32;20;16;10
44045;PMS7003;29709;52.396;16.796;2022-12-19T15:44:37;30;24;16
44045;PMS7003;29709;52.396;16.796;2022-12-19T15:48:12;23;16;6
44045;PMS7003;29709;52.396;16.796;2022-12-19T15:51:17;25;23;17
44045;PMS7003;29709;52.396;16.796;2022-12-19T15:54:20;21;18;10
44045;PMS7003;29709;52.396;16.796;2022-12-19T16:00:37;23;20;14
44045;PMS7003;29709;52.396;16.796;2022-12-19T16:03:41;27;24;17
44045;PMS7003;29709;52.396;16.796;2022-12-19T16:06:44;29;24;16
44045;PMS7003;29709;52.396;16.796;2022-12-19T16:09:47;31;25;15
44045;PMS7003;29709;52.396;16.796;2022-12-19T16:16:26;31;25;18
44045;PMS7003;29709;52.396;16.796;2022-12-19T16:19:30;36;29;20
44045;PMS7003;29709;52.396;16.796;2022-12-19T16:22:35;30;25;17
44045;PMS7003;29709;52.396;16.796;2022-12-19T16:25:47;28;23;18
44045;PMS7003;29709;52.396;16.796;2022-12-19T16:28:52;32;27;18
44045;PMS7003;29709;52.396;16.796;2022-12-19T16:31:55;17;10;5
44045;PMS7003;29709;52.396;16.796;2022-12-19T16:35:26;20;14;8
44045;PMS7003;29709;52.396;16.796;2022-12-19T16:38:32;34;26;19
44045;PMS7003;29709;52.396;16.796;2022-12-19T16:41:35;27;20;14
44045;PMS7003;29709;52.396;16.796;2022-12-19T16:44:38;22;18;12
44045;PMS7003;29709;52.396;16.796;2022-12-19T16:47:41;26;20;13
44045;PMS7003;29709;52.396;16.796;2022-12-19T16:50:44;26;22;16
44045;PMS7003;29709;52.396;16.796;2022-12-19T16:53:47;20;18;12
44045;PMS7003;29709;52.396;16.796;2022-12-19T16:56:53;19;13;10
44045;PMS7003;29709;52.396;16.796;2022-12-19T16:59:56;19;17;12
44045;PMS7003;29709;52.396;16.796;2022-12-19T17:03:31;19;16;12
44045;PMS7003;29709;52.396;16.796;2022-12-19T17:06:42;22;18;12
44045;PMS7003;29709;52.396;16.796;2022-12-19T17:09:46;30;26;18
44045;PMS7003;29709;52.396;16.796;2022-12-19T17:12:49;23;20;13
44045;PMS7003;29709;52.396;16.796;2022-12-19T17:15:53;17;15;9
44045;PMS7003;29709;52.396;16.796;2022-12-19T17:18:56;25;18;10
44045;PMS7003;29709;52.396;16.796;2022-12-19T17:22:09;24;21;13
44045;PMS7003;29709;52.396;16.796;2022-12-19T17:25:18;23;18;15
44045;PMS7003;29709;52.396;16.796;2022-12-19T17:28:24;19;19;13
44045;PMS7003;29709;52.396;16.796;2022-12-19T17:31:53;27;23;14
44045;PMS7003;29709;52.396;16.796;2022-12-19T17:34:56;24;23;15
44045;PMS7003;29709;52.396;16.796;2022-12-19T17:37:59;21;16;10
44045;PMS7003;29709;52.396;16.796;2022-12-19T17:41:02;23;20;13
44045;PMS7003;29709;52.396;16.796;2022-12-19T17:44:05;24;17;12
44045;PMS7003;29709;52.396;16.796;2022-12-19T17:47:11;24;20;14
44045;PMS7003;29709;52.396;16.796;2022-12-19T17:50:22;20;19;14
44045;PMS7003;29709;52.396;16.796;2022-12-19T17:53:28;25;21;14
44045;PMS7003;29709;52.396;16.796;2022-12-19T17:56:59;21;18;12
44045;PMS7003;29709;52.396;16.796;2022-12-19T18:00:02;21;19;13
44045;PMS7003;29709;52.396;16.796;2022-12-19T18:06:20;19;17;12
44045;PMS7003;29709;52.396;16.796;2022-12-19T18:09:23;21;17;12
44045;PMS7003;29709;52.396;16.796;2022-12-19T18:12:26;15;12;6
44045;PMS7003;29709;52.396;16.796;2022-12-19T18:15:29;21;17;10
44045;PMS7003;29709;52.396;16.796;2022-12-19T18:18:33;21;16;9
44045;PMS7003;29709;52.396;16.796;2022-12-19T18:21:37;24;19;13
44045;PMS7003;29709;52.396;16.796;2022-12-19T18:25:13;17;16;12
44045;PMS7003;29709;52.396;16.796;2022-12-19T18:28:21;24;19;13
44045;PMS7003;29709;52.396;16.796;2022-12-19T18:31:24;11;8;3
44045;PMS7003;29709;52.396;16.796;2022-12-19T18:34:28;22;17;13
44045;PMS7003;29709;52.396;16.796;2022-12-19T18:37:32;20;17;10
44045;PMS7003;29709;52.396;16.796;2022-12-19T18:40:36;28;22;14
44045;PMS7003;29709;52.396;16.796;2022-12-19T18:43:39;20;15;10
44045;PMS7003;29709;52.396;16.796;2022-12-19T18:46:42;16;13;8
44045;PMS7003;29709;52.396;16.796;2022-12-19T18:50:16;19;15;9
44045;PMS7003;29709;52.396;16.796;2022-12-19T18:53:22;16;11;8
44045;PMS7003;29709;52.396;16.796;2022-12-19T18:56:33;21;17;13
44045;PMS7003;29709;52.396;16.796;2022-12-19T18:59:36;20;20;15
44045;PMS7003;29709;52.396;16.796;2022-12-19T19:02:42;20;19;13
44045;PMS7003;29709;52.396;16.796;2022-12-19T19:05:48;21;17;11
44045;PMS7003;29709;52.396;16.796;2022-12-19T19:08:51;22;19;11
44045;PMS7003;29709;52.396;16.796;2022-12-19T19:12:00;29;22;14
44045;PMS7003;29709;52.396;16.796;2022-12-19T19:15:30;26;23;15
44045;PMS7003;29709;52.396;16.796;2022-12-19T19:18:37;19;17;12
44045;PMS7003;29709;52.396;16.796;2022-12-19T19:21:42;23;18;11
44045;PMS7003;29709;52.396;16.796;2022-12-19T19:24:46;19;17;12
44045;PMS7003;29709;52.396;16.796;2022-12-19T19:27:49;20;16;9
44045;PMS7003;29709;52.396;16.796;2022-12-19T19:30:52;19;16;10
44045;PMS7003;29709;52.396;16.796;2022-12-19T19:34:02;14;13;9
44045;PMS7003;29709;52.396;16.796;2022-12-19T19:37:11;22;16;11
44045;PMS7003;29709;52.396;16.796;2022-12-19T19:40:16;17;14;11
44045;PMS7003;29709;52.396;16.796;2022-12-19T19:43:46;17;15;9
44045;PMS7003;29709;52.396;16.796;2022-12-19T19:46:49;17;15;9
44045;PMS7003;29709;52.396;16.796;2022-12-19T19:49:56;17;15;10
44045;PMS7003;29709;52.396;16.796;2022-12-19T19:53:00;21;18;12
44045;PMS7003;29709;52.396;16.796;2022-12-19T19:56:03;11;9;6
44045;PMS7003;29709;52.396;16.796;2022-12-19T19:59:07;24;20;13
44045;PMS7003;29709;52.396;16.796;2022-12-19T20:02:10;16;15;8
44045;PMS7003;29709;52.396;16.796;2022-12-19T20:05:14;20;18;11
44045;PMS7003;29709;52.396;16.796;2022-12-19T20:08:17;18;15;10
44045;PMS7003;29709;52.396;16.796;2022-12-19T20:11:20;19;15;11
44045;PMS7003;29709;52.396;16.796;2022-12-19T20:14:48;22;17;13
44045;PMS7003;29709;52.396;16.796;2022-12-19T20:17:51;18;14;11
44045;PMS7003;29709;52.396;16.796;2022-12-19T20:20:54;15;13;7
44045;PMS7003;29709;52.396;16.796;2022-12-19T20:23:57;21;19;15
44045;PMS7003;29709;52.396;16.796;2022-12-19T20:27:00;14;13;10
44045;PMS7003;29709;52.396;16.796;2022-12-19T20:30:04;18;17;12
44045;PMS7003;29709;52.396;16.796;2022-12-19T20:33:08;18;14;10
44045;PMS7003;29709;52.396;16.796;2022-12-19T20:36:11;20;17;11
44045;PMS7003;29709;52.396;16.796;2022-12-19T20:39:15;20;17;12
44045;PMS7003;29709;52.396;16.796;2022-12-19T20:42:52;28;22;15
44045;PMS7003;29709;52.396;16.796;2022-12-19T20:49:06;17;13;9
44045;PMS7003;29709;52.396;16.796;2022-12-19T20:52:09;18;13;9
44045;PMS7003;29709;52.396;16.796;2022-12-19T20:55:13;17;16;10
44045;PMS7003;29709;52.396;16.796;2022-12-19T20:58:16;11;10;6
44045;PMS7003;29709;52.396;16.796;2022-12-19T21:01:22;16;16;10
44045;PMS7003;29709;52.396;16.796;2022-12-19T21:04:26;15;13;9
44045;PMS7003;29709;52.396;16.796;2022-12-19T21:07:57;18;16;10
44045;PMS7003;29709;52.396;16.796;2022-12-19T21:11:00;14;12;8
44045;PMS7003;29709;52.396;16.796;2022-12-19T21:14:04;14;13;9
44045;PMS7003;29709;52.396;16.796;2022-12-19T21:17:09;16;13;8
44045;PMS7003;29709;52.396;16.796;2022-12-19T21:20:12;19;17;10
44045;PMS7003;29709;52.396;16.796;2022-12-19T21:23:17;19;16;11
44045;PMS7003;29709;52.396;16.796;2022-12-19T21:26:20;20;16;11
44045;PMS7003;29709;52.396;16.796;2022-12-19T21:29:25;24;19;12
44045;PMS7003;29709;52.396;16.796;2022-12-19T21:32:28;27;20;13
44045;PMS7003;29709;52.396;16.796;2022-12-19T21:35:32;22;19;11
44045;PMS7003;29709;52.396;16.796;2022-12-19T21:39:01;18;16;10
44045;PMS7003;29709;52.396;16.796;2022-12-19T21:42:04;15;13;8
44045;PMS7003;29709;52.396;16.796;2022-12-19T21:45:08;17;14;10
44045;PMS7003;29709;52.396;16.796;2022-12-19T21:48:12;15;14;9
44045;PMS7003;29709;52.396;16.796;2022-12-19T21:51:16;17;15;10
44045;PMS7003;29709;52.396;16.796;2022-12-19T21:54:20;16;16;11
44045;PMS7003;29709;52.396;16.796;2022-12-19T21:57:23;21;17;11
44045;PMS7003;29709;52.396;16.796;2022-12-19T22:00:26;18;16;10
44045;PMS7003;29709;52.396;16.796;2022-12-19T22:03:29;8;6;3
44045;PMS7003;29709;52.396;16.796;2022-12-19T22:06:32;8;6;2
44045;PMS7003;29709;52.396;16.796;2022-12-19T22:09:36;16;15;9
44045;PMS7003;29709;52.396;16.796;2022-12-19T22:13:04;16;12;10
44045;PMS7003;29709;52.396;16.796;2022-12-19T22:16:08;10;9;6
44045;PMS7003;29709;52.396;16.796;2022-12-19T22:19:12;11;10;6
44045;PMS7003;29709;52.396;16.796;2022-12-19T22:22:17;17;16;12
44045;PMS7003;29709;52.396;16.796;2022-12-19T22:25:19;21;18;12
44045;PMS7003;29709;52.396;16.796;2022-12-19T22:28:23;18;13;9
44045;PMS7003;29709;52.396;16.796;2022-12-19T22:31:29;17;12;6
44045;PMS7003;29709;52.396;16.796;2022-12-19T22:34:34;16;15;10
44045;PMS7003;29709;52.396;16.796;2022-12-19T22:37:37;12;10;7